createdAt,value
2022-09-13T00:02:07.879Z,11.38
2022-09-13T00:04:34.490Z,18.38
2022-09-13T00:07:00.964Z,9.48
2022-09-13T00:09:32.264Z,8.88
2022-09-13T00:12:01.060Z,10.52
2022-09-13T00:14:27.614Z,10.27
2022-09-13T00:16:54.196Z,11.70
2022-09-13T00:19:20.709Z,9.70
2022-09-13T00:21:47.249Z,8.68
2022-09-13T00:24:16.490Z,9.48
2022-09-13T00:26:43.107Z,9.23
2022-09-13T00:29:09.641Z,9.23
2022-09-13T00:31:38.710Z,9.52
2022-09-13T00:34:05.318Z,8.73
2022-09-13T00:36:31.851Z,11.32
2022-09-13T00:39:00.400Z,9.55
2022-09-13T00:41:27.055Z,8.45
2022-09-13T00:43:59.502Z,11.82
2022-09-13T00:46:44.198Z,8.55
2022-09-13T00:49:13.622Z,9.73
2022-09-13T00:51:45.990Z,11.00
2022-09-13T00:54:15.285Z,10.63
2022-09-13T00:56:48.639Z,13.57
2022-09-13T00:59:58.348Z,9.30
2022-09-13T01:02:25.103Z,10.48
2022-09-13T01:04:51.846Z,13.25
2022-09-13T01:07:19.055Z,9.48
2022-09-13T01:09:52.699Z,10.75
2022-09-13T01:12:41.634Z,14.00
2022-09-13T01:15:10.886Z,10.82
2022-09-13T01:17:39.538Z,10.70
2022-09-13T01:20:10.913Z,9.23
2022-09-13T01:22:49.464Z,10.55
2022-09-13T01:25:55.469Z,10.43
2022-09-13T01:28:40.112Z,11.68
2022-09-13T01:31:31.694Z,9.10
2022-09-13T01:34:12.764Z,12.73
2022-09-13T01:36:50.126Z,13.32
2022-09-13T01:39:42.895Z,11.32
2022-09-13T01:42:28.746Z,9.52
2022-09-13T01:45:10.982Z,10.57
2022-09-13T01:48:16.570Z,9.55
2022-09-13T01:50:48.582Z,11.93
2022-09-13T01:53:35.098Z,12.57
2022-09-13T01:56:26.106Z,9.60
2022-09-13T01:59:22.800Z,11.35
2022-09-13T02:02:14.907Z,14.77
2022-09-13T02:04:47.592Z,10.02
2022-09-13T02:07:26.593Z,9.35
2022-09-13T02:10:00.354Z,10.93
2022-09-13T02:12:31.159Z,11.52
2022-09-13T02:15:07.190Z,11.90
2022-09-13T02:17:39.208Z,9.70
2022-09-13T02:20:21.367Z,9.55
2022-09-13T02:22:57.913Z,10.23
2022-09-13T02:25:29.080Z,11.98
2022-09-13T02:28:01.771Z,10.02
2022-09-13T02:30:31.648Z,10.60
2022-09-13T02:33:08.643Z,11.38
2022-09-13T02:36:17.429Z,11.63
2022-09-13T02:38:52.633Z,10.80
2022-09-13T02:41:31.263Z,10.65
2022-09-13T02:44:08.317Z,11.88
2022-09-13T02:46:43.606Z,10.82
2022-09-13T02:49:24.692Z,10.93
2022-09-13T02:52:17.130Z,10.52
2022-09-13T02:54:57.782Z,10.40
2022-09-13T02:57:38.677Z,10.07
2022-09-13T03:00:08.667Z,11.32
2022-09-13T03:02:38.380Z,12.20
2022-09-13T03:05:05.283Z,11.82
2022-09-13T03:07:31.779Z,13.23
2022-09-13T03:10:05.592Z,12.50
2022-09-13T03:12:44.233Z,12.07
2022-09-13T03:15:29.785Z,11.75
2022-09-13T03:18:28.723Z,10.65
2022-09-13T03:21:08.256Z,13.35
2022-09-13T03:23:34.738Z,13.73
2022-09-13T03:26:04.446Z,13.07
2022-09-13T03:29:06.538Z,13.68
2022-09-13T03:31:38.403Z,14.23
2022-09-13T03:34:15.752Z,11.20
2022-09-13T03:36:44.460Z,10.60
2022-09-13T03:39:22.996Z,9.82
2022-09-13T03:41:55.913Z,11.52
2022-09-13T03:44:26.005Z,9.90
2022-09-13T03:46:57.965Z,12.73
2022-09-13T03:49:27.027Z,9.82
2022-09-13T03:51:54.901Z,11.52
2022-09-13T03:54:30.159Z,11.23
2022-09-13T03:57:10.707Z,13.27
2022-09-13T03:59:39.620Z,16.08
2022-09-13T04:02:12.051Z,14.45
2022-09-13T04:04:40.409Z,9.57
2022-09-13T04:07:07.500Z,12.98
2022-09-13T04:09:34.215Z,13.30
2022-09-13T04:12:00.937Z,13.57
2022-09-13T04:14:28.289Z,14.05
2022-09-13T04:16:56.608Z,12.00
2022-09-13T04:19:24.193Z,12.48
2022-09-13T04:21:52.433Z,11.85
2022-09-13T04:24:19.648Z,13.43
2022-09-13T04:26:54.494Z,12.13
2022-09-13T04:29:22.661Z,12.63
2022-09-13T04:31:55.942Z,14.52
2022-09-13T04:34:23.246Z,14.52
2022-09-13T04:36:52.251Z,12.63
2022-09-13T04:39:22.235Z,11.52
2022-09-13T04:41:49.722Z,11.95
2022-09-13T04:44:19.283Z,13.93
2022-09-13T04:46:51.418Z,12.73
2022-09-13T04:49:18.712Z,14.02
2022-09-13T04:51:45.245Z,12.48
2022-09-13T04:54:15.578Z,15.05
2022-09-13T04:56:49.587Z,16.85
2022-09-13T04:59:16.908Z,15.50
2022-09-13T05:01:43.615Z,17.67
2022-09-13T05:04:10.574Z,14.65
2022-09-13T05:06:37.508Z,11.32
2022-09-13T05:09:04.236Z,14.25
2022-09-13T05:11:31.560Z,14.40
2022-09-13T05:13:59.943Z,13.98
2022-09-13T05:16:29.554Z,15.43
2022-09-13T05:18:57.105Z,14.35
2022-09-13T05:21:24.226Z,14.52
2022-09-13T05:23:54.954Z,13.25
2022-09-13T05:26:24.057Z,19.52
2022-09-13T05:28:51.161Z,14.43
2022-09-13T05:31:21.767Z,10.90
2022-09-13T05:33:54.157Z,19.98
2022-09-13T05:36:20.803Z,14.40
2022-09-13T05:38:58.067Z,16.70
2022-09-13T05:41:34.033Z,12.27
2022-09-13T05:44:10.401Z,19.73
2022-09-13T05:46:39.632Z,15.38
2022-09-13T05:49:06.228Z,13.77
2022-09-13T05:51:36.450Z,16.27
2022-09-13T05:54:05.438Z,18.05
2022-09-13T05:56:34.245Z,12.93
2022-09-13T05:59:00.751Z,15.43
2022-09-13T06:01:29.350Z,14.90
2022-09-13T06:03:59.749Z,13.85
2022-09-13T06:06:29.113Z,13.13
2022-09-13T06:08:57.585Z,17.90
2022-09-13T06:11:26.265Z,13.48
2022-09-13T06:13:55.355Z,14.55
2022-09-13T06:16:22.228Z,19.30
2022-09-13T06:18:49.211Z,16.98
2022-09-13T06:21:27.025Z,14.77
2022-09-13T06:23:55.683Z,16.27
2022-09-13T06:26:25.970Z,21.92
2022-09-13T06:28:54.695Z,14.23
2022-09-13T06:31:25.742Z,17.80
2022-09-13T06:34:05.518Z,12.80
2022-09-13T06:36:32.596Z,14.70
2022-09-13T06:39:01.781Z,12.93
2022-09-13T06:41:28.692Z,13.07
2022-09-13T06:43:59.373Z,15.82
2022-09-13T06:46:32.373Z,14.57
2022-09-13T06:49:00.773Z,14.45
2022-09-13T06:51:32.681Z,16.98
2022-09-13T06:54:03.976Z,11.98
2022-09-13T06:56:32.742Z,15.85
2022-09-13T06:59:01.195Z,17.02
2022-09-13T07:01:30.812Z,15.38
2022-09-13T07:04:03.623Z,15.43
2022-09-13T07:06:32.512Z,18.98
2022-09-13T07:09:01.378Z,15.75
2022-09-13T07:11:33.042Z,24.05
2022-09-13T07:14:02.503Z,20.10
2022-09-13T07:16:31.529Z,19.33
2022-09-13T07:19:05.585Z,16.67
2022-09-13T07:21:33.980Z,21.42
2022-09-13T07:24:00.711Z,16.75
2022-09-13T07:26:29.558Z,19.60
2022-09-13T07:28:59.206Z,19.75
2022-09-13T07:31:47.182Z,22.30
2022-09-13T07:34:19.011Z,19.60
2022-09-13T07:36:48.941Z,23.95
2022-09-13T07:39:22.037Z,27.27
2022-09-13T07:41:49.339Z,29.10
2022-09-13T07:44:15.901Z,25.55
2022-09-13T07:46:44.165Z,28.55
2022-09-13T07:49:12.998Z,31.27
2022-09-13T07:51:42.057Z,24.17
2022-09-13T07:54:14.185Z,29.30
2022-09-13T07:56:41.794Z,30.60
2022-09-13T07:59:13.763Z,32.10
2022-09-13T08:01:48.792Z,27.50
2022-09-13T08:04:21.278Z,28.45
2022-09-13T08:06:48.123Z,24.13
2022-09-13T08:09:15.890Z,25.85
2022-09-13T08:11:52.730Z,22.95
2022-09-13T08:14:21.531Z,28.13
2022-09-13T08:16:48.202Z,26.10
2022-09-13T08:19:19.807Z,24.90
2022-09-13T08:21:46.862Z,28.92
2022-09-13T08:24:19.126Z,22.20
2022-09-13T08:26:48.712Z,24.95
2022-09-13T08:29:18.757Z,25.70
2022-09-13T08:31:45.393Z,25.77
2022-09-13T08:34:14.631Z,29.27
2022-09-13T08:36:41.787Z,27.90
2022-09-13T08:39:09.367Z,26.17
2022-09-13T08:41:45.355Z,23.50
2022-09-13T08:44:31.155Z,22.55
2022-09-13T08:47:06.493Z,25.50
2022-09-13T08:49:41.534Z,28.45
2022-09-13T08:52:46.283Z,24.98
2022-09-13T08:55:30.053Z,24.35
2022-09-13T08:58:14.920Z,22.63
2022-09-13T09:00:46.779Z,20.85
2022-09-13T09:03:36.118Z,19.55
2022-09-13T09:06:02.780Z,24.63
2022-09-13T09:08:33.893Z,21.25
2022-09-13T09:11:07.908Z,17.40
2022-09-13T09:13:57.274Z,15.52
2022-09-13T09:16:40.092Z,13.50
2022-09-13T09:19:34.445Z,13.55
2022-09-13T09:22:05.940Z,13.48
2022-09-13T09:24:36.451Z,12.38
2022-09-13T09:27:14.372Z,12.90
2022-09-13T09:29:44.153Z,11.90
2022-09-13T09:32:44.223Z,10.48
2022-09-13T09:35:29.314Z,11.25
2022-09-13T09:38:31.405Z,11.35
2022-09-13T09:41:05.671Z,9.95
2022-09-13T09:43:48.591Z,8.32
2022-09-13T09:46:23.330Z,14.23
2022-09-13T09:48:54.990Z,8.50
2022-09-13T09:51:27.010Z,10.93
2022-09-13T09:54:02.001Z,10.35
2022-09-13T09:56:33.109Z,11.07
2022-09-13T09:59:02.608Z,10.02
2022-09-13T10:01:32.658Z,10.63
2022-09-13T10:04:14.230Z,11.02
2022-09-13T10:06:42.261Z,15.10
2022-09-13T10:09:16.730Z,9.40
2022-09-13T10:11:57.716Z,16.35
2022-09-13T10:14:40.144Z,10.45
2022-09-13T10:17:25.801Z,10.30
2022-09-13T10:20:15.393Z,11.32
2022-09-13T10:22:43.043Z,10.75
2022-09-13T10:25:25.109Z,12.05
2022-09-13T10:27:59.291Z,13.07
2022-09-13T10:30:34.959Z,12.57
2022-09-13T10:33:03.091Z,11.27
2022-09-13T10:35:30.117Z,9.07
2022-09-13T10:37:59.033Z,10.65
2022-09-13T10:40:34.164Z,9.88
2022-09-13T10:43:07.853Z,11.45
2022-09-13T10:45:38.767Z,10.85
2022-09-13T10:48:13.126Z,11.88
2022-09-13T10:50:40.030Z,11.98
2022-09-13T10:53:38.055Z,13.45
2022-09-13T10:56:06.307Z,11.07
2022-09-13T10:58:33.064Z,10.65
2022-09-13T11:01:23.902Z,9.10
2022-09-13T11:04:50.660Z,10.20
2022-09-13T11:07:25.088Z,8.02
2022-09-13T11:10:05.729Z,8.35
2022-09-13T11:13:04.621Z,5.45
2022-09-13T11:15:34.331Z,4.93
2022-09-13T11:18:17.064Z,4.53
2022-09-13T11:21:05.471Z,8.98
2022-09-13T11:24:17.094Z,8.52
2022-09-13T11:27:05.316Z,8.82
2022-09-13T11:30:02.205Z,9.75
2022-09-13T11:32:50.406Z,9.60
2022-09-13T11:35:32.215Z,9.70
2022-09-13T11:38:17.570Z,9.60
2022-09-13T11:40:51.510Z,8.60
2022-09-13T11:43:35.673Z,13.32
2022-09-13T11:46:12.063Z,10.05
2022-09-13T11:48:47.664Z,9.63
2022-09-13T11:51:19.983Z,8.68
2022-09-13T11:54:37.950Z,10.40
2022-09-13T11:57:15.169Z,10.48
2022-09-13T11:59:50.810Z,8.90
2022-09-13T12:02:34.529Z,7.45
2022-09-13T12:05:22.048Z,7.20
2022-09-13T12:08:14.787Z,6.53
2022-09-13T12:10:52.543Z,6.97
2022-09-13T12:13:29.563Z,12.15
2022-09-13T12:16:09.918Z,5.28
2022-09-13T12:18:47.977Z,4.82
2022-09-13T12:21:23.684Z,12.45
2022-09-13T12:24:14.391Z,4.97
2022-09-13T12:26:56.239Z,4.63
2022-09-13T12:29:50.303Z,6.70
2022-09-13T12:32:18.523Z,4.45
2022-09-13T12:34:58.932Z,3.88
2022-09-13T12:37:51.651Z,3.72
2022-09-13T12:40:51.609Z,4.07
2022-09-13T12:43:24.012Z,3.72
2022-09-13T12:45:59.697Z,4.13
2022-09-13T12:48:29.280Z,3.17
2022-09-13T12:51:12.494Z,2.63
2022-09-13T12:54:02.659Z,5.43
2022-09-13T12:57:03.320Z,2.90
2022-09-13T12:59:45.160Z,3.65
2022-09-13T13:02:30.662Z,6.65
2022-09-13T13:05:06.392Z,9.10
2022-09-13T13:07:38.213Z,2.10
2022-09-13T13:10:06.696Z,2.25
2022-09-13T13:12:40.770Z,2.70
2022-09-13T13:15:27.337Z,1.77
2022-09-13T13:17:55.468Z,2.30
2022-09-13T13:20:52.307Z,5.80
2022-09-13T13:23:23.369Z,4.25
2022-09-13T13:26:02.976Z,3.47
2022-09-13T13:28:47.838Z,2.17
2022-09-13T13:31:32.494Z,4.75
2022-09-13T13:34:14.383Z,1.58
2022-09-13T13:36:43.704Z,3.40
2022-09-13T13:39:33.758Z,2.00
2022-09-13T13:42:13.209Z,2.58
2022-09-13T13:44:42.456Z,2.78
2022-09-13T13:47:08.890Z,3.17
2022-09-13T13:49:41.300Z,1.17
2022-09-13T13:52:10.785Z,3.65
2022-09-13T13:54:44.245Z,2.42
2022-09-13T13:57:55.826Z,2.28
2022-09-13T14:00:30.335Z,5.70
2022-09-13T14:02:59.239Z,3.13
2022-09-13T14:05:49.025Z,3.90
2022-09-13T14:08:34.113Z,2.67
2022-09-13T14:11:29.847Z,3.63
2022-09-13T14:14:32.786Z,1.95
2022-09-13T14:17:15.544Z,3.60
2022-09-13T14:19:50.270Z,3.67
2022-09-13T14:22:25.341Z,2.50
2022-09-13T14:24:57.174Z,4.20
2022-09-13T14:27:29.203Z,5.03
2022-09-13T14:30:01.690Z,1.83
2022-09-13T14:32:39.835Z,2.50
2022-09-13T14:35:31.117Z,2.47
2022-09-13T14:38:12.162Z,4.95
2022-09-13T14:40:39.719Z,2.40
2022-09-13T14:43:25.991Z,1.88
2022-09-13T14:45:59.991Z,2.85
2022-09-13T14:48:37.142Z,6.50
2022-09-13T14:51:12.711Z,3.88
2022-09-13T14:53:42.995Z,5.20
2022-09-13T14:56:17.682Z,3.40
2022-09-13T14:58:58.486Z,3.13
2022-09-13T15:01:43.251Z,6.82
2022-09-13T15:04:10.021Z,3.88
2022-09-13T15:06:39.873Z,4.50
2022-09-13T15:09:12.898Z,5.43
2022-09-13T15:11:55.091Z,4.85
2022-09-13T15:14:35.013Z,2.95
2022-09-13T15:17:11.125Z,2.97
2022-09-13T15:19:37.639Z,5.38
2022-09-13T15:22:19.660Z,4.13
2022-09-13T15:24:54.577Z,2.45
2022-09-13T15:27:27.134Z,7.15
2022-09-13T15:30:03.471Z,2.83
2022-09-13T15:32:32.325Z,3.15
2022-09-13T15:35:00.937Z,4.22
2022-09-13T15:37:38.416Z,5.80
2022-09-13T15:40:13.337Z,3.08
2022-09-13T15:42:42.264Z,3.30
2022-09-13T15:45:09.322Z,3.50
2022-09-13T15:47:37.344Z,4.68
2022-09-13T15:50:04.290Z,3.45
2022-09-13T15:52:31.304Z,3.90
2022-09-13T15:55:00.129Z,2.75
2022-09-13T15:57:28.739Z,3.83
2022-09-13T16:00:01.437Z,3.22
2022-09-13T16:02:35.703Z,2.83
2022-09-13T16:05:05.586Z,5.15
2022-09-13T16:07:32.338Z,1.90
2022-09-13T16:09:59.006Z,4.65
2022-09-13T16:12:27.004Z,5.53
2022-09-13T16:14:54.778Z,4.32
2022-09-13T16:17:26.745Z,2.88
2022-09-13T16:19:54.498Z,4.95
2022-09-13T16:22:21.573Z,5.03
2022-09-13T16:24:50.911Z,3.63
2022-09-13T16:27:19.358Z,5.28
2022-09-13T16:29:50.765Z,4.72
2022-09-13T16:32:17.411Z,3.58
2022-09-13T16:34:47.545Z,3.20
2022-09-13T16:37:16.340Z,4.00
2022-09-13T16:39:43.044Z,3.70
2022-09-13T16:42:10.348Z,1.95
2022-09-13T16:44:36.947Z,9.38
2022-09-13T16:47:04.273Z,10.75
2022-09-13T16:49:33.331Z,4.13
2022-09-13T16:51:59.867Z,6.22
2022-09-13T16:54:27.564Z,4.93
2022-09-13T16:56:57.481Z,5.38
2022-09-13T16:59:31.446Z,3.33
2022-09-13T17:01:58.171Z,3.25
2022-09-13T17:04:25.560Z,7.00
2022-09-13T17:06:52.147Z,3.92
2022-09-13T17:09:23.711Z,5.70
2022-09-13T17:11:50.507Z,3.83
2022-09-13T17:14:17.870Z,3.55
2022-09-13T17:16:52.125Z,3.38
2022-09-13T17:19:25.244Z,6.70
2022-09-13T17:21:53.585Z,6.65
2022-09-13T17:24:23.094Z,2.08
2022-09-13T17:26:49.732Z,4.88
2022-09-13T17:29:16.267Z,2.45
2022-09-13T17:31:43.490Z,10.25
2022-09-13T17:34:11.261Z,7.25
2022-09-13T17:36:42.053Z,4.78
2022-09-13T17:39:09.249Z,3.70
2022-09-13T17:41:36.458Z,3.70
2022-09-13T17:44:04.025Z,6.75
2022-09-13T17:46:31.024Z,5.70
2022-09-13T17:48:59.537Z,5.28
2022-09-13T17:51:30.726Z,8.77
2022-09-13T17:54:03.533Z,6.75
2022-09-13T17:56:37.272Z,5.60
2022-09-13T17:59:10.209Z,4.55
2022-09-13T18:01:41.951Z,4.07
2022-09-13T18:04:09.849Z,4.20
2022-09-13T18:06:40.778Z,3.88
2022-09-13T18:09:07.364Z,4.20
2022-09-13T18:11:34.080Z,7.82
2022-09-13T18:14:00.611Z,3.08
2022-09-13T18:16:29.399Z,3.30
2022-09-13T18:18:56.467Z,4.55
2022-09-13T18:21:27.554Z,3.42
2022-09-13T18:23:58.308Z,3.70
2022-09-13T18:26:29.835Z,4.68
2022-09-13T18:29:04.189Z,2.78
2022-09-13T18:31:32.837Z,5.05
2022-09-13T18:34:02.214Z,6.28
2022-09-13T18:36:33.390Z,7.75
2022-09-13T18:39:04.765Z,5.40
2022-09-13T18:41:37.607Z,6.28
2022-09-13T18:44:09.464Z,10.82
2022-09-13T18:46:37.460Z,4.35
2022-09-13T18:49:05.834Z,5.95
2022-09-13T18:51:35.734Z,5.82
2022-09-13T18:54:04.565Z,4.65
2022-09-13T18:56:33.165Z,6.18
2022-09-13T18:59:02.127Z,9.02
2022-09-13T19:01:32.689Z,11.35
2022-09-13T19:04:06.236Z,4.65
2022-09-13T19:06:38.918Z,4.13
2022-09-13T19:09:06.965Z,5.30
2022-09-13T19:11:52.027Z,3.90
2022-09-13T19:14:24.622Z,4.10
2022-09-13T19:16:53.974Z,3.17
2022-09-13T19:19:20.673Z,5.05
2022-09-13T19:21:48.732Z,2.22
2022-09-13T19:24:18.686Z,3.20
2022-09-13T19:26:50.816Z,4.05
2022-09-13T19:29:23.007Z,4.50
2022-09-13T19:31:52.826Z,5.72
2022-09-13T19:34:21.430Z,5.15
2022-09-13T19:36:53.735Z,9.20
2022-09-13T19:39:20.453Z,4.50
2022-09-13T19:41:47.061Z,2.95
2022-09-13T19:44:14.368Z,5.82
2022-09-13T19:46:42.385Z,5.72
2022-09-13T19:49:13.894Z,7.05
2022-09-13T19:51:41.669Z,3.97
2022-09-13T19:54:12.144Z,5.00
2022-09-13T19:56:42.724Z,3.83
2022-09-13T19:59:12.202Z,9.20
2022-09-13T20:01:41.521Z,3.50
2022-09-13T20:04:12.241Z,7.07
2022-09-13T20:06:44.184Z,7.57
2022-09-13T20:09:15.520Z,3.85
2022-09-13T20:11:46.679Z,6.05
2022-09-13T20:14:15.452Z,2.75
2022-09-13T20:16:43.145Z,7.72
2022-09-13T20:19:38.933Z,6.00
2022-09-13T20:22:01.406Z,3.40
2022-09-13T20:24:28.211Z,8.20
2022-09-13T20:26:57.284Z,6.15
2022-09-13T20:29:24.626Z,8.30
2022-09-13T20:31:51.214Z,3.10
2022-09-13T20:34:17.993Z,9.60
2022-09-13T20:36:45.497Z,6.32
2022-09-13T20:39:12.032Z,6.95
2022-09-13T20:41:38.637Z,4.22
2022-09-13T20:44:05.286Z,2.65
2022-09-13T20:46:31.979Z,9.43
2022-09-13T20:49:01.789Z,7.13
2022-09-13T20:51:32.698Z,6.07
2022-09-13T20:54:01.154Z,4.50
2022-09-13T20:56:29.153Z,11.02
2022-09-13T20:59:00.151Z,5.85
2022-09-13T21:01:29.745Z,5.50
2022-09-13T21:03:57.664Z,5.05
2022-09-13T21:06:26.549Z,7.68
2022-09-13T21:08:59.637Z,6.53
2022-09-13T21:11:33.980Z,5.00
2022-09-13T21:14:03.428Z,1.85
2022-09-13T21:16:34.966Z,7.53
2022-09-13T21:19:01.579Z,8.05
2022-09-13T21:21:33.801Z,7.35
2022-09-13T21:24:04.719Z,5.07
2022-09-13T21:26:31.952Z,8.88
2022-09-13T21:28:58.865Z,8.10
2022-09-13T21:31:28.245Z,10.77
2022-09-13T21:34:00.568Z,7.57
2022-09-13T21:36:28.752Z,4.22
2022-09-13T21:38:56.130Z,8.73
2022-09-13T21:41:24.041Z,3.95
2022-09-13T21:43:55.469Z,9.30
2022-09-13T21:46:24.951Z,7.07
2022-09-13T21:48:56.215Z,6.05
2022-09-13T21:51:25.973Z,7.75
2022-09-13T21:53:58.500Z,7.45
2022-09-13T21:56:27.933Z,3.83
2022-09-13T21:58:58.335Z,4.28
2022-09-13T22:01:30.025Z,9.73
2022-09-13T22:03:57.272Z,5.38
2022-09-13T22:06:24.394Z,10.65
2022-09-13T22:08:53.990Z,4.75
2022-09-13T22:11:26.435Z,7.18
2022-09-13T22:13:53.779Z,9.48
2022-09-13T22:16:31.443Z,5.75
2022-09-13T22:19:09.249Z,6.05
2022-09-13T22:21:40.908Z,5.95
2022-09-13T22:24:11.643Z,3.50
2022-09-13T22:26:40.867Z,10.57
2022-09-13T22:29:10.578Z,8.73
2022-09-13T22:31:39.883Z,7.18
2022-09-13T22:34:07.922Z,7.82
2022-09-13T22:36:36.799Z,5.75
2022-09-13T22:39:03.732Z,6.72
2022-09-13T22:41:33.346Z,5.05
2022-09-13T22:44:02.904Z,6.00
2022-09-13T22:46:32.918Z,10.85
2022-09-13T22:48:59.959Z,7.43
2022-09-13T22:51:27.021Z,5.05
2022-09-13T22:53:54.572Z,6.25
2022-09-13T22:56:27.958Z,5.90
2022-09-13T22:59:07.681Z,8.43
2022-09-13T23:01:35.257Z,11.98
2022-09-13T23:04:02.323Z,7.80
2022-09-13T23:06:34.181Z,6.68
2022-09-13T23:09:03.091Z,5.20
2022-09-13T23:11:32.265Z,6.72
2022-09-13T23:14:01.649Z,4.45
2022-09-13T23:16:31.311Z,5.38
2022-09-13T23:19:00.282Z,5.97
2022-09-13T23:21:31.796Z,8.38
2022-09-13T23:24:04.654Z,6.65
2022-09-13T23:26:31.485Z,5.50
2022-09-13T23:29:00.205Z,5.72
2022-09-13T23:31:32.246Z,7.03
2022-09-13T23:34:01.907Z,7.13
2022-09-13T23:36:31.132Z,8.57
2022-09-13T23:38:59.294Z,4.55
2022-09-13T23:41:26.239Z,6.38
2022-09-13T23:43:54.175Z,6.20
2022-09-13T23:46:21.037Z,10.32
2022-09-13T23:48:47.897Z,2.83
2022-09-13T23:51:19.948Z,7.72
2022-09-13T23:53:49.796Z,6.03
2022-09-13T23:56:18.989Z,5.35
2022-09-13T23:58:45.852Z,6.47
